createdAt,value
2022-11-04T00:00:33.699Z,9.82
2022-11-04T00:03:02.539Z,9.79
2022-11-04T00:05:46.236Z,9.76
2022-11-04T00:08:50.236Z,9.75
2022-11-04T00:11:46.571Z,9.74
2022-11-04T00:14:20.521Z,9.69
2022-11-04T00:17:07.814Z,9.70
2022-11-04T00:19:56.112Z,9.67
2022-11-04T00:22:46.471Z,9.69
2022-11-04T00:25:56.516Z,9.70
2022-11-04T00:28:40.713Z,9.71
2022-11-04T00:31:27.925Z,9.70
2022-11-04T00:33:57.676Z,9.68
2022-11-04T00:36:25.890Z,9.64
2022-11-04T00:38:52.928Z,9.62
2022-11-04T00:41:31.076Z,9.60
2022-11-04T00:44:07.497Z,9.60
2022-11-04T00:46:34.936Z,9.62
2022-11-04T00:49:01.876Z,9.62
2022-11-04T00:51:29.420Z,9.60
2022-11-04T00:53:58.359Z,9.59
2022-11-04T00:56:25.407Z,9.61
2022-11-04T00:58:59.854Z,9.63
2022-11-04T01:01:27.008Z,9.62
2022-11-04T01:03:54.553Z,9.59
2022-11-04T01:06:48.935Z,9.60
2022-11-04T01:12:28.347Z,9.56
2022-11-04T01:17:47.809Z,9.52
2022-11-04T01:20:16.484Z,9.50
2022-11-04T01:22:46.087Z,9.51
2022-11-04T01:25:26.872Z,9.53
2022-11-04T01:28:07.620Z,9.53
2022-11-04T01:30:40.767Z,9.52
2022-11-04T01:33:30.279Z,9.52
2022-11-04T01:36:12.675Z,9.49
2022-11-04T01:38:39.978Z,9.46
2022-11-04T01:41:08.419Z,9.43
2022-11-04T01:43:59.598Z,9.37
2022-11-04T01:46:34.678Z,9.30
2022-11-04T01:49:22.685Z,9.22
2022-11-04T01:51:52.545Z,9.14
2022-11-04T01:54:20.313Z,9.11
2022-11-04T01:56:49.550Z,9.03
2022-11-04T01:59:26.420Z,9.03
2022-11-04T02:01:54.415Z,8.99
2022-11-04T02:04:36.323Z,8.94
2022-11-04T02:07:11.191Z,8.92
2022-11-04T02:09:40.846Z,8.91
2022-11-04T02:12:26.382Z,8.92
2022-11-04T02:14:54.683Z,8.95
2022-11-04T02:17:39.717Z,8.93
2022-11-04T02:20:17.953Z,8.91
2022-11-04T02:23:06.552Z,8.87
2022-11-04T02:25:43.781Z,8.83
2022-11-04T02:28:21.270Z,8.79
2022-11-04T02:31:15.676Z,8.76
2022-11-04T02:33:54.175Z,8.71
2022-11-04T02:36:40.084Z,8.69
2022-11-04T02:39:25.992Z,8.67
2022-11-04T02:42:04.753Z,8.65
2022-11-04T02:44:50.425Z,8.62
2022-11-04T02:47:22.417Z,8.65
2022-11-04T02:49:58.845Z,8.66
2022-11-04T02:52:54.265Z,8.65
2022-11-04T02:55:29.923Z,8.68
2022-11-04T02:58:00.714Z,8.67
2022-11-04T03:00:29.625Z,8.66
2022-11-04T03:03:10.397Z,8.64
2022-11-04T03:05:42.206Z,8.70
2022-11-04T03:08:18.351Z,8.68
2022-11-04T03:10:59.236Z,8.68
2022-11-04T03:13:56.527Z,8.72
2022-11-04T03:17:11.317Z,8.71
2022-11-04T03:20:17.767Z,8.67
2022-11-04T03:22:53.690Z,8.65
2022-11-04T03:25:38.985Z,8.63
2022-11-04T03:28:30.834Z,8.63
2022-11-04T03:35:07.821Z,8.49
2022-11-04T03:43:28.660Z,8.27
2022-11-04T04:02:52.251Z,7.94
2022-11-04T04:05:38.093Z,7.87
2022-11-04T04:08:27.341Z,7.83
2022-11-04T04:11:12.466Z,7.74
2022-11-04T04:14:39.467Z,7.66
2022-11-04T04:17:38.815Z,7.59
2022-11-04T04:20:15.980Z,7.53
2022-11-04T04:22:59.497Z,7.53
2022-11-04T04:25:47.172Z,7.52
2022-11-04T04:28:21.063Z,7.53
2022-11-04T04:30:50.738Z,7.56
2022-11-04T04:33:19.566Z,7.61
2022-11-04T04:35:57.599Z,7.68
2022-11-04T04:38:48.588Z,7.72
2022-11-04T04:41:43.529Z,7.72
2022-11-04T04:44:37.029Z,7.71
2022-11-04T04:47:07.158Z,7.69
2022-11-04T04:49:57.128Z,7.66
2022-11-04T04:52:27.028Z,7.61
2022-11-04T04:54:54.066Z,7.59
2022-11-04T04:57:22.901Z,7.55
2022-11-04T04:59:50.297Z,7.51
2022-11-04T05:02:19.247Z,7.49
2022-11-04T05:04:56.825Z,7.46
2022-11-04T05:07:40.211Z,7.42
2022-11-04T05:10:21.197Z,7.40
2022-11-04T05:13:09.121Z,7.37
2022-11-04T05:15:36.113Z,7.32
2022-11-04T05:18:07.651Z,7.31
2022-11-04T05:20:38.271Z,7.30
2022-11-04T05:23:07.996Z,7.27
2022-11-04T05:25:36.922Z,7.23
2022-11-04T05:28:06.150Z,7.20
2022-11-04T05:30:33.684Z,7.19
2022-11-04T05:33:04.625Z,7.17
2022-11-04T05:35:39.956Z,7.14
2022-11-04T05:38:08.292Z,7.10
2022-11-04T05:40:35.706Z,7.03
2022-11-04T05:43:03.440Z,7.01
2022-11-04T05:45:30.738Z,6.98
2022-11-04T05:50:50.033Z,6.89
2022-11-04T05:53:17.384Z,6.90
2022-11-04T05:55:46.537Z,6.85
2022-11-04T05:58:14.508Z,6.82
2022-11-04T06:00:41.865Z,6.76
2022-11-04T06:03:15.262Z,6.73
2022-11-04T06:05:43.004Z,6.67
2022-11-04T06:08:10.235Z,6.62
2022-11-04T06:10:37.158Z,6.57
2022-11-04T06:13:04.188Z,6.56
2022-11-04T06:15:31.337Z,6.52
2022-11-04T06:17:58.257Z,6.56
2022-11-04T06:20:25.173Z,6.57
2022-11-04T06:22:52.124Z,6.54
2022-11-04T06:25:18.848Z,6.54
2022-11-04T06:27:46.082Z,6.54
2022-11-04T06:30:12.974Z,6.55
2022-11-04T06:32:39.962Z,6.54
2022-11-04T06:35:08.910Z,6.55
2022-11-04T06:37:36.158Z,6.54
2022-11-04T06:40:02.675Z,6.55
2022-11-04T06:42:29.964Z,6.56
2022-11-04T06:44:56.915Z,6.55
2022-11-04T06:47:25.083Z,6.53
2022-11-04T06:49:51.919Z,6.52
2022-11-04T06:52:19.141Z,6.51
2022-11-04T06:54:47.731Z,6.49
2022-11-04T06:57:14.745Z,6.47
2022-11-04T06:59:42.070Z,6.46
2022-11-04T07:02:11.307Z,6.48
2022-11-04T07:04:38.379Z,6.49
2022-11-04T07:07:05.985Z,6.49
2022-11-04T07:09:32.736Z,6.45
2022-11-04T07:11:59.746Z,6.47
2022-11-04T07:14:33.338Z,6.51
2022-11-04T07:16:59.752Z,6.54
2022-11-04T07:19:26.355Z,6.53
2022-11-04T07:21:53.101Z,6.52
2022-11-04T07:24:22.482Z,6.59
2022-11-04T07:26:51.294Z,6.79
2022-11-04T07:35:28.043Z,8.49
2022-11-04T08:08:02.758Z,8.77
2022-11-04T08:10:49.226Z,8.57
2022-11-04T08:13:18.402Z,8.40
2022-11-04T08:16:06.640Z,8.23
2022-11-04T08:18:38.292Z,8.13
2022-11-04T08:21:29.895Z,8.17
2022-11-04T08:24:19.261Z,8.19
2022-11-04T08:26:46.447Z,8.23
2022-11-04T08:29:33.033Z,8.24
2022-11-04T08:32:23.871Z,8.20
2022-11-04T08:35:12.131Z,8.18
2022-11-04T08:37:39.743Z,8.11
2022-11-04T08:40:27.216Z,8.11
2022-11-04T08:43:13.940Z,8.15
2022-11-04T08:45:45.411Z,8.18
2022-11-04T08:48:13.369Z,8.22
2022-11-04T08:50:40.525Z,8.28
2022-11-04T08:53:27.027Z,8.32
2022-11-04T08:55:53.977Z,8.76
2022-11-04T09:02:16.147Z,9.32
2022-11-04T09:04:43.848Z,9.26
2022-11-04T09:07:10.640Z,9.21
2022-11-04T09:09:40.854Z,9.41
2022-11-04T09:15:42.926Z,12.15
2022-11-04T09:18:48.498Z,12.31
2022-11-04T09:24:07.700Z,14.06
2022-11-04T09:26:41.790Z,14.61
2022-11-04T09:30:14.931Z,15.02
2022-11-04T09:32:18.519Z,15.53
2022-11-04T09:34:45.888Z,16.13
2022-11-04T09:37:12.698Z,16.49
2022-11-04T09:39:39.954Z,16.74
2022-11-04T09:42:24.708Z,16.73
2022-11-04T09:45:20.183Z,16.91
2022-11-04T09:47:46.338Z,16.98
2022-11-04T09:50:19.297Z,16.99
2022-11-04T09:52:49.293Z,17.07
2022-11-04T09:55:24.287Z,16.55
2022-11-04T10:01:07.475Z,14.66
2022-11-04T10:03:38.473Z,13.97
2022-11-04T10:06:24.195Z,13.38
2022-11-04T10:08:53.387Z,12.94
2022-11-04T10:11:22.990Z,12.56
2022-11-04T10:13:49.409Z,12.22
2022-11-04T10:16:31.882Z,12.02
2022-11-04T10:19:08.832Z,11.78
2022-11-04T10:21:53.159Z,11.56
2022-11-04T10:24:46.155Z,11.47
2022-11-04T10:27:32.735Z,11.26
2022-11-04T10:30:03.969Z,11.06
2022-11-04T10:32:38.585Z,11.03
2022-11-04T10:35:24.272Z,11.00
2022-11-04T10:37:54.657Z,10.96
2022-11-04T10:40:25.664Z,10.94
2022-11-04T10:42:53.523Z,10.92
2022-11-04T10:45:22.494Z,10.89
2022-11-04T10:47:57.884Z,10.87
2022-11-04T10:50:42.618Z,10.85
2022-11-04T10:53:14.763Z,10.88
2022-11-04T10:55:45.399Z,11.00
2022-11-04T10:58:15.351Z,11.06
2022-11-04T11:00:42.201Z,11.11
2022-11-04T11:03:28.938Z,11.25
2022-11-04T11:06:13.498Z,11.35
2022-11-04T11:08:41.488Z,11.37
2022-11-04T11:11:09.594Z,11.32
2022-11-04T11:13:37.697Z,11.25
2022-11-04T11:16:06.691Z,11.17
2022-11-04T11:18:38.764Z,11.10
2022-11-04T11:21:08.942Z,11.07
2022-11-04T11:23:37.603Z,11.00
2022-11-04T11:26:39.844Z,10.98
2022-11-04T11:29:14.598Z,11.17
2022-11-04T11:31:49.746Z,11.74
2022-11-04T11:34:21.274Z,12.50
2022-11-04T11:36:49.906Z,12.96
2022-11-04T11:39:19.563Z,13.59
2022-11-04T11:41:54.602Z,13.75
2022-11-04T11:44:33.820Z,13.85
2022-11-04T11:47:02.954Z,13.81
2022-11-04T11:49:31.550Z,13.88
2022-11-04T11:52:17.599Z,14.32
2022-11-04T11:54:47.217Z,15.10
2022-11-04T11:57:39.239Z,15.81
2022-11-04T12:03:21.335Z,16.30
2022-11-04T12:12:46.408Z,14.73
2022-11-04T12:15:18.934Z,14.34
2022-11-04T12:17:59.788Z,13.98
2022-11-04T12:20:33.551Z,13.65
2022-11-04T12:23:22.714Z,13.33
2022-11-04T12:26:04.185Z,13.21
2022-11-04T12:28:57.663Z,13.08
2022-11-04T12:31:44.212Z,12.88
2022-11-04T12:34:16.261Z,12.69
2022-11-04T12:36:55.897Z,12.66
2022-11-04T12:39:38.507Z,12.65
2022-11-04T12:42:22.977Z,12.58
2022-11-04T12:45:10.024Z,12.50
2022-11-04T12:47:44.695Z,12.46
2022-11-04T12:50:26.867Z,12.42
2022-11-04T12:53:08.343Z,12.37
2022-11-04T12:55:44.280Z,12.34
2022-11-04T12:58:58.725Z,12.31
2022-11-04T13:02:08.502Z,12.35
2022-11-04T13:05:13.520Z,12.26
2022-11-04T13:11:21.040Z,12.08
2022-11-04T13:13:50.355Z,12.13
2022-11-04T13:16:17.555Z,12.09
2022-11-04T13:18:49.434Z,12.10
2022-11-04T13:21:18.982Z,12.15
2022-11-04T13:23:52.707Z,12.16
2022-11-04T13:26:22.216Z,12.16
2022-11-04T13:28:56.384Z,12.17
2022-11-04T13:31:28.616Z,12.17
2022-11-04T13:34:01.128Z,12.18
2022-11-04T13:36:29.726Z,12.20
2022-11-04T13:38:56.798Z,12.15
2022-11-04T13:41:23.296Z,12.01
2022-11-04T13:43:56.445Z,11.81
2022-11-04T13:46:23.842Z,11.53
2022-11-04T13:48:50.995Z,11.06
2022-11-04T13:51:19.264Z,10.66
2022-11-04T13:53:56.696Z,10.38
2022-11-04T13:56:34.613Z,10.13
2022-11-04T13:59:22.512Z,9.96
2022-11-04T14:01:49.840Z,9.85
2022-11-04T14:04:26.905Z,9.81
2022-11-04T14:07:01.972Z,9.74
2022-11-04T14:09:35.750Z,9.68
2022-11-04T14:12:14.138Z,9.65
2022-11-04T14:14:41.796Z,9.68
2022-11-04T14:17:27.082Z,9.71
2022-11-04T14:19:56.535Z,9.69
2022-11-04T14:22:28.556Z,9.75
2022-11-04T14:24:59.634Z,9.78
2022-11-04T14:27:28.189Z,9.76
2022-11-04T14:29:54.998Z,9.74
2022-11-04T14:32:25.809Z,9.75
2022-11-04T14:35:00.462Z,9.80
2022-11-04T14:37:30.851Z,9.79
2022-11-04T14:39:59.376Z,9.77
2022-11-04T14:43:01.602Z,9.77
2022-11-04T14:45:38.948Z,9.84
2022-11-04T14:48:20.528Z,9.84
2022-11-04T14:50:49.728Z,9.91
2022-11-04T14:53:22.200Z,9.97
2022-11-04T14:56:02.290Z,9.99
2022-11-04T14:58:29.206Z,9.95
2022-11-04T15:01:00.777Z,9.97
2022-11-04T15:04:09.319Z,9.99
2022-11-04T15:06:34.762Z,9.97
2022-11-04T15:09:27.627Z,9.90
2022-11-04T15:12:23.482Z,9.84
2022-11-04T15:14:52.776Z,9.84
2022-11-04T15:17:20.636Z,9.82
2022-11-04T15:19:51.520Z,9.74
2022-11-04T15:22:18.707Z,9.72
2022-11-04T15:24:46.098Z,9.70
2022-11-04T15:27:15.134Z,9.68
2022-11-04T15:29:53.286Z,9.61
2022-11-04T15:32:20.347Z,9.59
2022-11-04T15:34:47.496Z,9.54
2022-11-04T15:37:14.571Z,9.43
2022-11-04T15:39:43.864Z,9.33
2022-11-04T15:42:35.924Z,9.25
2022-11-04T15:45:18.483Z,9.20
2022-11-04T15:47:45.898Z,9.16
2022-11-04T15:50:21.588Z,9.13
2022-11-04T15:52:50.909Z,9.05
2022-11-04T15:55:22.194Z,9.03
2022-11-04T15:57:50.299Z,8.99
2022-11-04T16:00:16.960Z,8.97
2022-11-04T16:02:48.788Z,8.95
2022-11-04T16:05:17.550Z,8.91
2022-11-04T16:07:45.150Z,8.87
2022-11-04T16:10:20.564Z,8.80
2022-11-04T16:12:47.273Z,8.69
2022-11-04T16:15:34.495Z,8.52
2022-11-04T16:18:01.301Z,8.42
2022-11-04T16:20:27.873Z,8.37
2022-11-04T16:22:59.359Z,8.37
2022-11-04T16:25:29.107Z,8.29
2022-11-04T16:27:55.585Z,8.26
2022-11-04T16:30:23.606Z,8.28
2022-11-04T16:32:51.333Z,8.26
2022-11-04T16:35:23.020Z,8.24
2022-11-04T16:37:50.841Z,8.25
2022-11-04T16:40:18.431Z,8.24
2022-11-04T16:42:46.517Z,8.21
2022-11-04T16:45:25.583Z,8.23
2022-11-04T16:47:52.928Z,8.23
2022-11-04T16:50:20.014Z,8.21
2022-11-04T16:52:46.690Z,8.20
2022-11-04T16:55:14.350Z,8.16
2022-11-04T16:57:41.582Z,8.14
2022-11-04T17:00:09.105Z,8.10
2022-11-04T17:02:41.328Z,8.11
2022-11-04T17:05:09.041Z,8.12
2022-11-04T17:07:52.055Z,8.06
2022-11-04T17:10:26.832Z,7.98
2022-11-04T17:12:53.422Z,7.97
2022-11-04T17:15:21.501Z,7.96
2022-11-04T17:17:48.581Z,7.99
2022-11-04T17:20:17.735Z,7.97
2022-11-04T17:22:45.272Z,7.94
2022-11-04T17:25:16.745Z,7.96
2022-11-04T17:27:44.883Z,7.97
2022-11-04T17:30:13.524Z,8.00
2022-11-04T17:32:46.817Z,7.96
2022-11-04T17:35:14.725Z,7.95
2022-11-04T17:37:41.976Z,7.89
2022-11-04T17:40:12.030Z,7.88
2022-11-04T17:42:59.052Z,7.86
2022-11-04T17:45:26.772Z,7.90
2022-11-04T17:47:53.608Z,7.89
2022-11-04T17:50:20.794Z,7.86
2022-11-04T17:52:49.304Z,7.87
2022-11-04T17:55:18.797Z,7.84
2022-11-04T17:57:47.502Z,7.80
2022-11-04T18:00:14.926Z,7.78
2022-11-04T18:02:42.252Z,7.80
2022-11-04T18:05:09.230Z,7.80
2022-11-04T18:07:36.568Z,7.82
2022-11-04T18:10:06.259Z,7.83
2022-11-04T18:12:38.824Z,7.86
2022-11-04T18:15:06.797Z,7.87
2022-11-04T18:17:37.158Z,7.76
2022-11-04T18:20:07.116Z,7.64
2022-11-04T18:22:36.787Z,7.55
2022-11-04T18:25:04.320Z,7.61
2022-11-04T18:27:33.504Z,7.61
2022-11-04T18:30:01.299Z,7.58
2022-11-04T18:32:28.701Z,7.56
2022-11-04T18:34:55.262Z,7.51
2022-11-04T18:37:23.377Z,7.47
2022-11-04T18:39:50.647Z,7.45
2022-11-04T18:42:17.108Z,7.42
2022-11-04T18:44:43.671Z,7.40
2022-11-04T18:47:10.578Z,7.37
2022-11-04T18:49:38.282Z,7.36
2022-11-04T18:52:05.580Z,7.36
2022-11-04T18:54:32.394Z,7.37
2022-11-04T18:56:59.106Z,7.34
2022-11-04T18:59:26.052Z,7.29
2022-11-04T19:01:53.595Z,7.24
2022-11-04T19:04:20.296Z,7.22
2022-11-04T19:06:47.256Z,7.18
2022-11-04T19:12:21.862Z,7.15
2022-11-04T19:14:48.316Z,7.11
2022-11-04T19:17:17.517Z,7.12
2022-11-04T19:19:44.224Z,7.11
2022-11-04T19:22:11.046Z,7.07
2022-11-04T19:24:40.206Z,7.05
2022-11-04T19:27:07.354Z,7.05
2022-11-04T19:29:33.874Z,7.04
2022-11-04T19:32:01.031Z,7.05
2022-11-04T19:34:27.857Z,7.04
2022-11-04T19:36:54.822Z,7.05
2022-11-04T19:39:21.522Z,7.04
2022-11-04T19:42:09.416Z,7.03
2022-11-04T19:44:35.866Z,7.01
2022-11-04T19:47:02.727Z,7.01
2022-11-04T19:49:31.777Z,7.01
2022-11-04T19:51:58.720Z,7.01
2022-11-04T19:54:25.941Z,6.97
2022-11-04T19:56:52.997Z,6.89
2022-11-04T19:59:20.108Z,6.81
2022-11-04T20:01:47.144Z,6.79
2022-11-04T20:04:13.967Z,6.80
2022-11-04T20:06:40.411Z,6.78
2022-11-04T20:09:08.322Z,6.69
2022-11-04T20:11:35.766Z,6.66
2022-11-04T20:14:08.044Z,6.68
2022-11-04T20:16:39.626Z,6.68
2022-11-04T20:19:08.488Z,6.64
2022-11-04T20:21:36.495Z,6.59
2022-11-04T20:24:04.947Z,6.56
2022-11-04T20:26:32.648Z,6.55
2022-11-04T20:28:59.566Z,6.55
2022-11-04T20:31:27.498Z,6.53
2022-11-04T20:33:54.543Z,6.53
2022-11-04T20:36:22.146Z,6.49
2022-11-04T20:38:48.609Z,6.48
2022-11-04T20:41:18.979Z,6.47
2022-11-04T20:43:47.290Z,6.46
2022-11-04T20:46:15.694Z,6.45
2022-11-04T20:48:42.208Z,6.47
2022-11-04T20:51:11.686Z,6.46
2022-11-04T20:53:38.973Z,6.45
2022-11-04T20:56:10.474Z,6.42
2022-11-04T20:58:45.128Z,6.40
2022-11-04T21:01:16.674Z,6.37
2022-11-04T21:03:49.516Z,6.37
2022-11-04T21:06:16.689Z,6.36
2022-11-04T21:08:44.060Z,6.35
2022-11-04T21:11:11.457Z,6.35
2022-11-04T21:13:40.820Z,6.37
2022-11-04T21:16:10.763Z,6.38
2022-11-04T21:18:38.738Z,6.36
2022-11-04T21:21:10.292Z,6.36
2022-11-04T21:23:41.860Z,6.33
2022-11-04T21:26:31.850Z,6.32
2022-11-04T21:29:03.156Z,6.30
2022-11-04T21:31:33.487Z,6.32
2022-11-04T21:34:00.992Z,6.32
2022-11-04T21:36:28.516Z,6.32
2022-11-04T21:38:55.117Z,6.28
2022-11-04T21:41:25.210Z,6.18
2022-11-04T21:43:55.691Z,6.12
2022-11-04T21:46:22.665Z,6.08
2022-11-04T21:48:49.522Z,6.08
2022-11-04T21:51:18.625Z,6.11
2022-11-04T21:53:46.290Z,6.13
2022-11-04T21:56:15.629Z,6.17
2022-11-04T21:58:46.138Z,6.21
2022-11-04T22:01:16.955Z,6.22
2022-11-04T22:03:44.931Z,6.25
2022-11-04T22:06:13.882Z,6.25
2022-11-04T22:08:45.067Z,6.27
2022-11-04T22:11:13.726Z,6.28
2022-11-04T22:13:43.013Z,6.18
2022-11-04T22:16:10.740Z,6.16
2022-11-04T22:18:37.689Z,6.15
2022-11-04T22:21:06.023Z,6.17
2022-11-04T22:23:36.204Z,6.20
2022-11-04T22:26:03.612Z,6.23
2022-11-04T22:28:31.552Z,6.23
2022-11-04T22:31:04.452Z,6.22
2022-11-04T22:33:32.056Z,6.27
2022-11-04T22:35:59.579Z,6.32
2022-11-04T22:38:26.542Z,6.36
2022-11-04T22:40:57.297Z,6.39
2022-11-04T22:43:25.213Z,6.43
2022-11-04T22:45:53.160Z,6.43
2022-11-04T22:48:20.303Z,6.46
2022-11-04T22:50:47.629Z,6.50
2022-11-04T22:53:14.573Z,6.53
2022-11-04T22:55:45.537Z,6.60
2022-11-04T22:58:12.368Z,6.63
2022-11-04T23:00:38.978Z,6.68
2022-11-04T23:03:06.043Z,6.69
2022-11-04T23:05:33.694Z,6.72
2022-11-04T23:08:01.133Z,6.77
2022-11-04T23:10:48.809Z,6.80
2022-11-04T23:13:38.376Z,6.85
2022-11-04T23:16:25.263Z,6.89
2022-11-04T23:18:52.535Z,6.92
2022-11-04T23:21:41.396Z,6.95
2022-11-04T23:24:26.623Z,6.91
2022-11-04T23:26:53.090Z,6.75
2022-11-04T23:29:38.539Z,6.59
2022-11-04T23:32:05.282Z,6.43
2022-11-04T23:34:50.567Z,6.37
2022-11-04T23:37:19.900Z,6.30
2022-11-04T23:39:47.843Z,6.27
2022-11-04T23:42:18.267Z,6.25
2022-11-04T23:45:08.363Z,6.23
2022-11-04T23:48:00.710Z,6.21
2022-11-04T23:50:49.494Z,6.19
2022-11-04T23:53:35.341Z,6.17
2022-11-04T23:56:21.424Z,6.15
2022-11-04T23:59:06.848Z,6.12
